Time;durP1;ratioP1;P1;durP2;ratioP2;P2;SDS_P1;SDS_P2;PMS_P1;PMS_P2;Temp;Humidity;BMP_temperature;BMP_pressure;BME280_temperature;BME280_humidity;BME280_pressure;Samples;Min_cycle;Max_cycle;Signal;HPM_P1;HPM_P2
2023/01/17 00:01:07;;;;;;;2.23;1.33;;;14.80;63.00;15.70;97510.00;;;;5030471;28;20178;-47
2023/01/17 00:09:51;;;;;;;1.33;1.17;;;14.80;63.00;15.70;97505.00;;;;5030618;28;20225;-47
2023/01/17 00:11:53;;;;;;;1.33;1.20;;;14.70;62.80;15.60;97514.00;;;;5028320;28;20189;-47
2023/01/17 00:14:19;;;;;;;1.27;1.17;;;14.70;62.90;15.60;97519.00;;;;5029325;28;20175;-47
2023/01/17 00:16:44;;;;;;;1.40;1.30;;;14.70;62.90;15.60;97518.00;;;;5030273;28;20190;-47
2023/01/17 01:34:01;;;;;;;1.10;0.80;;;14.60;63.50;15.40;97650.00;;;;5029522;28;20182;-46
2023/01/17 01:36:27;;;;;;;0.80;0.80;;;14.70;63.50;15.40;97662.00;;;;5028256;28;20664;-47
2023/01/17 01:38:53;;;;;;;1.13;1.03;;;14.70;63.40;15.40;97670.00;;;;5029082;28;20182;-48
2023/01/17 01:41:19;;;;;;;1.10;1.00;;;14.70;63.50;15.50;97667.00;;;;5028606;28;20186;-48
2023/01/17 01:43:49;;;;;;;1.33;1.10;;;14.70;63.40;15.50;97665.00;;;;5029096;28;20545;-46
2023/01/17 01:46:30;;;;;;;1.50;1.20;;;14.70;63.50;15.50;97688.00;;;;5029277;28;20722;-46
2023/01/17 01:49:03;;;;;;;1.10;1.00;;;14.70;63.50;15.50;97675.00;;;;5012826;28;20163;-46
2023/01/17 01:51:37;;;;;;;1.00;1.00;;;14.70;63.50;15.50;97683.00;;;;5027294;28;20182;-46
2023/01/17 01:54:11;;;;;;;1.10;1.00;;;14.70;63.50;15.50;97674.00;;;;5027867;28;20170;-46
2023/01/17 01:56:37;;;;;;;0.87;0.87;;;14.70;63.60;15.50;97702.00;;;;5018354;28;20179;-47
2023/01/17 01:59:03;;;;;;;1.00;1.00;;;14.70;63.70;15.50;97696.00;;;;5034219;28;20632;-47
2023/01/17 02:01:29;;;;;;;1.20;1.10;;;14.70;63.70;15.50;97704.00;;;;5013468;28;20256;-46
2023/01/17 02:03:55;;;;;;;1.10;1.00;;;14.70;63.70;15.50;97704.00;;;;5028223;28;20183;-47
2023/01/17 02:06:31;;;;;;;0.90;0.90;;;14.70;63.70;15.50;97699.00;;;;5027602;28;20253;-47
2023/01/17 02:09:02;;;;;;;1.03;0.90;;;14.70;63.70;15.50;97720.00;;;;5017733;28;20185;-47
2023/01/17 02:11:27;;;;;;;0.90;0.90;;;14.70;63.70;15.50;97713.00;;;;5017876;28;20178;-48
2023/01/17 02:13:53;;;;;;;1.10;0.90;;;14.70;63.70;15.50;97734.00;;;;5034272;28;20183;-48
2023/01/17 02:16:53;;;;;;;0.87;0.67;;;14.70;63.70;15.50;97738.00;;;;5029485;28;20640;-48
2023/01/17 02:19:49;;;;;;;1.17;1.07;;;14.70;63.70;15.50;97720.00;;;;5027597;28;20213;-46
2023/01/17 02:22:39;;;;;;;0.90;0.90;;;14.70;63.70;15.50;97729.00;;;;5028276;28;20163;-47
2023/01/17 02:25:42;;;;;;;1.53;1.23;;;14.60;63.60;15.50;97735.00;;;;5028605;28;20163;-47
2023/01/17 02:28:38;;;;;;;1.00;0.90;;;14.60;64.40;15.40;97737.00;;;;5029085;28;20572;-48
2023/01/17 02:31:16;;;;;;;0.90;0.90;;;14.60;63.60;15.40;97753.00;;;;5012070;28;20167;-48
2023/01/17 02:33:57;;;;;;;1.03;1.00;;;14.60;63.60;15.40;97758.00;;;;5011663;28;20167;-47
2023/01/17 02:36:29;;;;;;;0.80;0.80;;;14.60;63.60;15.40;97752.00;;;;5013306;28;20195;-47
2023/01/17 02:39:09;;;;;;;0.80;0.80;;;14.60;63.70;15.40;97761.00;;;;5015098;28;20238;-47
2023/01/17 02:41:37;;;;;;;0.83;0.83;;;14.60;63.70;15.40;97761.00;;;;5032080;28;20151;-47
2023/01/17 02:44:03;;;;;;;1.70;0.90;;;14.50;63.50;15.40;97773.00;;;;5014790;28;20262;-46
2023/01/17 02:46:29;;;;;;;1.40;1.17;;;14.50;63.50;15.40;97755.00;;;;5032210;28;20227;-47
2023/01/17 02:48:55;;;;;;;0.97;0.97;;;14.50;63.60;15.40;97778.00;;;;5031743;28;20194;-48
2023/01/17 02:51:43;;;;;;;0.73;0.73;;;14.50;63.50;15.30;97780.00;;;;5030349;28;20224;-48
2023/01/17 02:54:22;;;;;;;0.97;0.97;;;14.40;63.40;15.30;97775.00;;;;5031784;28;20156;-47
2023/01/17 02:56:59;;;;;;;0.77;0.77;;;14.50;63.60;15.30;97775.00;;;;5036655;28;20198;-47
2023/01/17 03:00:04;;;;;;;1.10;1.10;;;14.40;63.50;15.30;97777.00;;;;5033177;28;20166;-46
2023/01/17 03:02:52;;;;;;;0.80;0.80;;;14.40;63.50;15.30;97784.00;;;;5018153;28;20167;-47
2023/01/17 03:05:43;;;;;;;0.73;0.73;;;14.40;63.50;15.30;97783.00;;;;5030704;28;20163;-46
2023/01/17 03:08:09;;;;;;;0.80;0.80;;;14.40;63.50;15.20;97781.00;;;;5030001;28;20203;-48
2023/01/17 03:10:35;;;;;;;0.93;0.83;;;14.40;63.60;15.20;97789.00;;;;5013951;28;20229;-47
2023/01/17 03:13:00;;;;;;;0.90;0.90;;;14.40;63.50;15.20;97795.00;;;;5032139;28;20580;-47
2023/01/17 03:15:26;;;;;;;0.83;0.83;;;14.40;63.50;15.20;97801.00;;;;5030507;28;20206;-49
2023/01/17 03:17:54;;;;;;;1.23;1.07;;;14.40;63.50;15.20;97789.00;;;;5030313;28;20254;-47
2023/01/17 03:20:20;;;;;;;0.93;0.83;;;14.40;63.50;15.20;97793.00;;;;5030964;28;20194;-47
2023/01/17 03:22:45;;;;;;;1.07;1.00;;;14.40;63.50;15.20;97791.00;;;;5030590;28;20194;-46
2023/01/17 03:25:11;;;;;;;0.77;0.77;;;14.30;63.30;15.20;97802.00;;;;5031368;28;20174;-48
2023/01/17 03:27:37;;;;;;;1.03;0.93;;;14.30;63.30;15.10;97809.00;;;;5031395;28;20256;-47
2023/01/17 03:30:04;;;;;;;1.00;1.00;;;14.40;63.50;15.10;97815.00;;;;5031741;28;20224;-47
2023/01/17 03:32:29;;;;;;;0.93;0.93;;;14.30;63.30;15.10;97818.00;;;;5031033;28;20213;-47
2023/01/17 03:34:55;;;;;;;0.83;0.83;;;14.30;63.40;15.10;97816.00;;;;5031243;28;20199;-47
2023/01/17 03:37:21;;;;;;;0.80;0.80;;;14.30;63.30;15.10;97823.00;;;;5030885;28;20662;-47
2023/01/17 03:39:47;;;;;;;0.97;0.93;;;14.30;63.40;15.10;97825.00;;;;5031395;28;20175;-47
2023/01/17 03:42:12;;;;;;;0.70;0.70;;;14.20;63.30;15.10;97828.00;;;;5030940;28;20178;-47
2023/01/17 03:44:38;;;;;;;1.00;1.00;;;14.20;63.20;15.10;97822.00;;;;5031397;28;20233;-47
2023/01/17 03:47:04;;;;;;;1.17;1.07;;;14.30;63.30;15.00;97828.00;;;;5030241;28;20711;-47
2023/01/17 03:49:30;;;;;;;1.37;1.27;;;14.20;63.20;15.00;97833.00;;;;5031753;28;20206;-47
2023/01/17 03:51:55;;;;;;;0.90;0.90;;;14.20;63.20;15.00;97841.00;;;;5031330;28;20175;-47
2023/01/17 03:54:21;;;;;;;0.77;0.77;;;14.20;63.20;15.00;97841.00;;;;5030753;28;20167;-48
2023/01/17 03:56:47;;;;;;;1.47;0.97;;;14.20;63.20;15.00;97845.00;;;;5030721;28;20195;-47
2023/01/17 03:59:13;;;;;;;1.30;1.00;;;14.10;63.10;15.00;97844.00;;;;5030971;28;20182;-47
2023/01/17 04:01:38;;;;;;;1.20;1.10;;;14.10;63.10;15.00;97838.00;;;;5030508;28;20175;-47
2023/01/17 04:04:04;;;;;;;0.97;0.97;;;14.10;63.10;15.00;97845.00;;;;5030951;28;20179;-46
2023/01/17 04:06:30;;;;;;;1.00;1.00;;;14.10;63.10;15.00;97847.00;;;;5030378;28;20187;-47
2023/01/17 04:08:55;;;;;;;0.77;0.77;;;14.10;63.10;15.00;97845.00;;;;5030200;28;20525;-47
2023/01/17 04:11:21;;;;;;;0.90;0.90;;;14.10;63.10;14.90;97845.00;;;;5012651;28;20179;-46
2023/01/17 04:13:47;;;;;;;1.23;1.00;;;14.10;63.10;14.90;97848.00;;;;5030451;28;20202;-47
2023/01/17 04:16:15;;;;;;;0.90;0.90;;;14.10;63.10;14.90;97855.00;;;;5030282;28;20179;-47
2023/01/17 04:18:40;;;;;;;0.90;0.90;;;14.10;63.20;14.90;97854.00;;;;5029163;28;20197;-47
2023/01/17 04:21:07;;;;;;;0.90;0.90;;;14.10;63.40;14.90;97845.00;;;;5030134;28;20652;-47
2023/01/17 04:23:33;;;;;;;1.20;1.10;;;14.00;63.40;14.90;97855.00;;;;5030143;28;20192;-47
2023/01/17 04:25:58;;;;;;;0.73;0.73;;;14.10;63.50;14.90;97857.00;;;;5030662;28;20182;-48
2023/01/17 04:28:24;;;;;;;1.27;0.93;;;14.10;63.50;14.90;97855.00;;;;5030309;28;20190;-48
2023/01/17 04:30:50;;;;;;;4.37;1.03;;;14.10;63.80;14.90;97859.00;;;;5030652;28;20253;-47
2023/01/17 04:33:17;;;;;;;0.70;0.70;;;14.20;64.20;15.00;97863.00;;;;5029785;28;20187;-47
2023/01/17 04:35:42;;;;;;;1.73;1.13;;;14.20;64.00;15.00;97875.00;;;;5030168;28;20175;-47
2023/01/17 04:38:08;;;;;;;2.70;1.03;;;14.30;64.00;15.00;97858.00;;;;5032401;28;20244;-47
2023/01/17 04:40:34;;;;;;;3.10;1.17;;;14.30;64.10;15.10;97862.00;;;;5039655;28;20198;-47
2023/01/17 04:43:00;;;;;;;2.27;1.10;;;14.30;64.10;15.10;97858.00;;;;5031321;28;20239;-47
2023/01/17 04:45:25;;;;;;;1.30;1.10;;;14.30;63.80;15.10;97871.00;;;;5030174;28;20174;-47
2023/01/17 04:47:51;;;;;;;2.83;1.13;;;14.40;63.70;15.10;97869.00;;;;5030121;28;20210;-46
2023/01/17 04:50:17;;;;;;;1.93;1.33;;;14.40;63.50;15.10;97863.00;;;;5028880;28;20175;-47
2023/01/17 04:52:43;;;;;;;1.90;1.20;;;14.40;63.40;15.20;97869.00;;;;5030086;28;20293;-47
2023/01/17 04:55:08;;;;;;;1.27;1.17;;;14.40;63.40;15.20;97875.00;;;;5028838;28;20175;-46
2023/01/17 04:57:34;;;;;;;1.40;1.30;;;14.40;63.40;15.20;97879.00;;;;5029617;28;20242;-47
2023/01/17 05:00:00;;;;;;;1.40;1.30;;;14.40;63.40;15.20;97881.00;;;;5030040;28;20182;-47
2023/01/17 05:02:26;;;;;;;1.43;1.20;;;14.40;63.30;15.20;97883.00;;;;5029622;28;20651;-46
2023/01/17 05:04:51;;;;;;;2.33;1.40;;;14.40;63.20;15.20;97884.00;;;;5022536;28;20182;-47
2023/01/17 05:07:17;;;;;;;2.43;1.43;;;14.40;63.10;15.20;97884.00;;;;5018182;28;20723;-46
2023/01/17 05:09:43;;;;;;;1.53;1.43;;;14.40;63.30;15.20;97873.00;;;;5009627;28;20760;-47
2023/01/17 05:12:09;;;;;;;4.00;1.47;;;14.40;63.40;15.20;97873.00;;;;5009069;28;20160;-47
2023/01/17 05:14:34;;;;;;;5.43;1.70;;;14.40;63.50;15.20;97874.00;;;;5009480;28;20237;-46
2023/01/17 05:17:01;;;;;;;5.63;1.40;;;14.50;63.60;15.30;97886.00;;;;5009447;28;20619;-47
2023/01/17 05:19:27;;;;;;;4.33;1.20;;;14.50;63.60;15.30;97886.00;;;;5009275;28;20274;-47
2023/01/17 05:21:53;;;;;;;3.20;1.20;;;14.50;63.50;15.30;97885.00;;;;5008891;28;20275;-48
2023/01/17 05:24:19;;;;;;;5.40;1.50;;;14.50;63.50;15.10;97878.00;;;;5009612;28;20182;-46
2023/01/17 05:26:45;;;;;;;3.37;1.30;;;14.50;63.50;15.30;97876.00;;;;5010302;28;20676;-47
2023/01/17 05:29:11;;;;;;;2.00;1.50;;;14.50;63.50;15.30;97875.00;;;;5009897;28;20175;-48
2023/01/17 05:31:36;;;;;;;3.00;1.50;;;14.50;63.50;15.30;97877.00;;;;5007540;28;20222;-46
2023/01/17 05:34:02;;;;;;;2.77;1.30;;;14.50;63.70;15.30;97873.00;;;;5009142;28;20176;-47
2023/01/17 05:36:28;;;;;;;2.77;1.53;;;14.50;63.70;15.30;97880.00;;;;5008579;28;20183;-46
2023/01/17 05:38:54;;;;;;;5.87;1.40;;;14.50;64.10;15.30;97892.00;;;;5010583;28;20243;-47
2023/01/17 05:41:19;;;;;;;4.60;1.40;;;14.50;64.10;15.30;97888.00;;;;5020427;28;20179;-47
2023/01/17 05:43:45;;;;;;;3.60;1.50;;;14.50;64.10;15.30;97890.00;;;;5021963;28;20175;-47
2023/01/17 05:46:11;;;;;;;1.50;1.40;;;14.50;64.10;15.30;97890.00;;;;5018046;28;20293;-49
2023/01/17 05:48:37;;;;;;;4.93;1.50;;;14.50;64.20;15.30;97887.00;;;;5010607;28;20253;-46
2023/01/17 05:51:02;;;;;;;2.10;1.37;;;14.40;64.20;15.30;97891.00;;;;5008553;28;20723;-47
2023/01/17 05:53:28;;;;;;;3.27;1.67;;;14.40;64.20;15.30;97898.00;;;;5009749;28;20179;-46
2023/01/17 05:55:54;;;;;;;1.37;1.27;;;14.40;64.10;15.30;97899.00;;;;5009553;28;20525;-47
2023/01/17 05:58:21;;;;;;;3.23;1.50;;;14.40;64.10;15.30;97890.00;;;;5008449;28;20199;-47
2023/01/17 06:00:46;;;;;;;3.23;1.40;;;14.40;65.00;15.30;97892.00;;;;5009103;28;20664;-47
2023/01/17 06:03:12;;;;;;;2.53;1.53;;;14.40;64.20;15.30;97895.00;;;;5008903;28;20314;-46
2023/01/17 06:05:38;;;;;;;2.73;1.50;;;14.40;64.20;15.30;97888.00;;;;5019572;28;20183;-46
2023/01/17 06:08:04;;;;;;;4.40;1.60;;;14.40;64.20;15.20;97906.00;;;;5027901;28;20696;-46
2023/01/17 06:10:30;;;;;;;5.27;1.50;;;14.40;64.20;15.20;97904.00;;;;5029859;28;20186;-48
2023/01/17 06:13:07;;;;;;;3.50;1.80;;;14.40;64.20;15.20;97916.00;;;;5034573;28;20163;-47
2023/01/17 06:15:34;;;;;;;2.67;1.70;;;14.40;64.30;15.20;97910.00;;;;5033356;28;20159;-47
2023/01/17 06:18:08;;;;;;;3.33;1.50;;;14.40;64.20;15.20;97912.00;;;;5032125;28;20213;-48
2023/01/17 06:20:34;;;;;;;1.73;1.37;;;14.30;64.10;15.20;97912.00;;;;5032443;28;20198;-48
2023/01/17 06:23:03;;;;;;;2.13;1.27;;;14.40;64.20;15.20;97917.00;;;;5032952;28;20170;-48
2023/01/17 06:25:29;;;;;;;1.60;1.30;;;14.30;64.20;15.20;97919.00;;;;5033142;28;20174;-47
2023/01/17 06:27:55;;;;;;;4.33;1.63;;;14.30;64.20;15.20;97920.00;;;;5032021;28;20203;-47
2023/01/17 06:30:21;;;;;;;1.93;1.37;;;14.30;64.10;15.20;97932.00;;;;5032524;28;20878;-47
2023/01/17 06:32:53;;;;;;;4.20;1.57;;;14.30;64.20;15.10;97929.00;;;;5032091;28;20179;-47
2023/01/17 06:35:21;;;;;;;1.77;1.20;;;14.30;64.20;15.10;97932.00;;;;5031490;28;20163;-47
2023/01/17 06:37:54;;;;;;;3.00;1.57;;;14.30;64.10;15.10;97929.00;;;;5031713;28;20285;-47
2023/01/17 06:40:20;;;;;;;1.53;1.43;;;14.30;64.20;15.10;97929.00;;;;5032268;28;20166;-47
2023/01/17 06:42:46;;;;;;;2.23;1.47;;;14.30;64.20;15.10;97931.00;;;;5032022;28;20179;-48
2023/01/17 06:45:12;;;;;;;2.43;1.17;;;14.30;64.10;15.10;97943.00;;;;5032755;28;20167;-46
2023/01/17 06:47:39;;;;;;;3.27;1.30;;;14.30;64.20;15.10;97943.00;;;;5031887;28;20257;-47
2023/01/17 06:50:12;;;;;;;1.47;1.37;;;14.30;64.20;15.00;97936.00;;;;5032015;28;20176;-48
2023/01/17 06:52:38;;;;;;;2.13;1.33;;;14.20;64.10;15.00;97948.00;;;;5029952;28;20174;-48
2023/01/17 06:55:05;;;;;;;1.97;1.20;;;14.20;64.20;15.00;97948.00;;;;5031999;28;20178;-48
2023/01/17 06:57:31;;;;;;;3.67;1.50;;;14.20;64.20;15.00;97951.00;;;;5031672;28;20203;-47
2023/01/17 06:59:56;;;;;;;2.37;1.47;;;14.20;64.50;15.00;97953.00;;;;5030472;28;20182;-47
2023/01/17 07:02:22;;;;;;;1.33;1.20;;;14.20;64.50;15.00;97954.00;;;;5030871;28;20210;-46
2023/01/17 07:04:48;;;;;;;3.03;1.20;;;14.20;64.40;15.00;97952.00;;;;5031439;28;20190;-47
2023/01/17 07:07:14;;;;;;;3.73;1.37;;;14.20;64.60;15.00;97958.00;;;;5031746;28;20218;-47
2023/01/17 07:09:39;;;;;;;1.83;1.40;;;14.20;64.80;15.00;97965.00;;;;5030016;28;20190;-47
2023/01/17 07:12:05;;;;;;;2.30;1.30;;;14.20;65.00;15.00;97953.00;;;;5030397;28;20179;-47
2023/01/17 07:14:31;;;;;;;2.80;1.50;;;14.20;65.10;15.00;97959.00;;;;5031583;28;20633;-47
2023/01/17 07:16:57;;;;;;;2.37;1.60;;;14.30;65.40;15.10;97958.00;;;;5031692;28;20202;-47
2023/01/17 07:19:23;;;;;;;2.90;1.47;;;14.30;65.40;15.10;97962.00;;;;5031310;28;20179;-47
2023/01/17 07:21:52;;;;;;;3.73;1.60;;;14.40;65.50;15.20;97970.00;;;;5031246;28;20332;-47
2023/01/17 07:24:19;;;;;;;3.03;1.70;;;14.50;66.20;15.20;97967.00;;;;5042089;28;20175;-47
2023/01/17 07:26:49;;;;;;;5.10;1.77;;;14.50;67.30;15.30;97962.00;;;;5032639;28;20257;-49
2023/01/17 07:29:14;;;;;;;22.80;3.17;;;14.60;68.60;15.30;97960.00;;;;5031791;28;20179;-48
2023/01/17 07:31:40;;;;;;;38.83;3.60;;;14.70;69.50;15.40;97968.00;;;;5029061;28;20652;-46
2023/01/17 07:34:06;;;;;;;17.03;2.70;;;14.70;69.90;15.40;97967.00;;;;5031988;28;20167;-47
2023/01/17 07:36:32;;;;;;;12.80;2.60;;;14.70;69.60;15.50;97977.00;;;;5030037;28;20649;-47
2023/01/17 07:38:57;;;;;;;9.60;2.37;;;14.80;69.60;15.50;97962.00;;;;5030177;28;20179;-47
2023/01/17 07:41:23;;;;;;;13.13;2.80;;;14.80;69.70;15.60;97974.00;;;;5029672;28;20905;-47
2023/01/17 07:43:49;;;;;;;16.77;2.53;;;14.90;69.90;15.60;97968.00;;;;5030476;28;20194;-46
2023/01/17 07:46:15;;;;;;;13.97;2.87;;;14.90;69.70;15.70;97968.00;;;;5030882;28;20647;-46
2023/01/17 07:48:40;;;;;;;10.03;2.40;;;14.90;69.60;15.70;97963.00;;;;5029477;28;20226;-46
2023/01/17 07:51:07;;;;;;;7.20;2.20;;;15.00;69.40;15.70;97965.00;;;;5030662;28;20656;-47
2023/01/17 07:53:32;;;;;;;10.77;2.37;;;15.00;69.40;15.80;97966.00;;;;5029884;28;20616;-46
2023/01/17 07:56:06;;;;;;;7.10;2.40;;;15.00;69.30;15.80;97967.00;;;;5030268;28;20178;-46
2023/01/17 07:58:32;;;;;;;8.37;2.30;;;15.00;69.20;15.80;97959.00;;;;5031041;28;20707;-46
2023/01/17 08:01:08;;;;;;;7.23;2.47;;;15.00;69.10;15.80;97955.00;;;;5030660;28;20636;-46
2023/01/17 08:03:38;;;;;;;12.90;2.57;;;15.00;69.40;15.80;97962.00;;;;5030726;28;20658;-46
2023/01/17 08:06:24;;;;;;;14.23;2.50;;;15.10;69.50;15.90;97962.00;;;;5031143;28;20182;-47
2023/01/17 08:08:51;;;;;;;8.67;2.43;;;15.10;69.20;15.90;97963.00;;;;5029456;28;20237;-46
2023/01/17 08:11:17;;;;;;;8.03;2.33;;;15.10;69.30;15.90;97956.00;;;;5030171;28;20261;-47
2023/01/17 08:13:43;;;;;;;6.87;2.10;;;15.10;69.10;15.90;97948.00;;;;5031108;28;20632;-47
2023/01/17 08:16:09;;;;;;;8.13;2.37;;;15.20;68.80;15.90;97958.00;;;;5029496;28;20177;-47
2023/01/17 08:18:36;;;;;;;5.00;2.10;;;15.10;68.60;15.90;97957.00;;;;5030332;28;20798;-47
2023/01/17 08:21:02;;;;;;;4.67;1.93;;;15.20;68.60;15.90;97955.00;;;;5030159;28;20197;-47
2023/01/17 08:23:30;;;;;;;7.67;2.23;;;15.20;68.50;15.90;97960.00;;;;5030922;28;20178;-46
2023/01/17 08:25:59;;;;;;;6.73;2.17;;;15.20;68.50;15.90;97963.00;;;;5031322;28;20182;-47
2023/01/17 08:28:25;;;;;;;7.33;2.40;;;15.10;69.10;15.90;97961.00;;;;5030861;28;20203;-46
2023/01/17 08:30:52;;;;;;;4.60;1.80;;;15.10;68.20;15.90;97967.00;;;;5030941;28;20282;-47
2023/01/17 08:33:18;;;;;;;4.83;1.93;;;15.20;68.20;15.90;97968.00;;;;5028932;28;20255;-46
2023/01/17 08:35:53;;;;;;;3.63;2.10;;;15.20;68.10;16.00;97965.00;;;;5030795;28;20485;-47
2023/01/17 08:38:19;;;;;;;5.67;1.87;;;15.20;68.10;16.00;97964.00;;;;5030255;28;20226;-47
2023/01/17 08:40:45;;;;;;;5.13;2.00;;;15.10;67.90;16.00;97972.00;;;;5031118;28;20190;-47
2023/01/17 08:43:11;;;;;;;4.63;2.00;;;15.10;67.90;16.00;97958.00;;;;5030693;28;20175;-46
2023/01/17 08:45:37;;;;;;;2.97;2.00;;;15.20;67.80;16.00;97967.00;;;;5030752;28;20217;-47
2023/01/17 08:48:03;;;;;;;3.97;2.00;;;15.20;67.80;16.00;97959.00;;;;5030738;28;20299;-47
2023/01/17 08:50:28;;;;;;;4.70;1.93;;;15.20;67.70;16.00;97955.00;;;;5031088;28;20232;-46
2023/01/17 08:52:58;;;;;;;3.80;1.80;;;15.20;67.70;16.00;97950.00;;;;5030203;28;20178;-46
2023/01/17 08:55:24;;;;;;;2.70;1.73;;;15.20;67.50;16.00;97963.00;;;;5030612;28;20676;-46
2023/01/17 08:57:50;;;;;;;4.27;1.80;;;15.20;67.50;16.00;97950.00;;;;5029304;28;20610;-46
2023/01/17 09:00:16;;;;;;;4.37;1.90;;;15.20;67.40;16.00;97955.00;;;;5030161;28;20320;-47
2023/01/17 09:02:42;;;;;;;3.50;1.83;;;15.20;67.30;16.00;97959.00;;;;5029103;28;20544;-46
2023/01/17 09:05:08;;;;;;;3.60;1.83;;;15.20;67.30;16.00;97957.00;;;;5029787;28;20194;-46
2023/01/17 09:07:34;;;;;;;3.87;1.60;;;15.20;67.30;16.00;97972.00;;;;5030049;28;20211;-47
2023/01/17 09:09:59;;;;;;;2.97;1.77;;;15.20;67.30;16.00;97975.00;;;;5030068;28;20175;-47
2023/01/17 09:12:25;;;;;;;2.77;1.67;;;15.20;67.20;16.00;97978.00;;;;5029965;28;20178;-46
2023/01/17 09:14:51;;;;;;;3.70;1.67;;;15.20;67.10;16.00;97977.00;;;;5029993;28;20170;-46
2023/01/17 09:17:17;;;;;;;3.00;2.00;;;15.30;67.00;16.10;97985.00;;;;5030278;28;20562;-46
2023/01/17 09:19:44;;;;;;;3.87;1.90;;;15.30;67.00;16.10;97971.00;;;;5030420;28;20191;-47
2023/01/17 09:22:12;;;;;;;3.13;1.70;;;15.30;67.00;16.10;97977.00;;;;5030689;28;20242;-46
2023/01/17 09:24:38;;;;;;;5.23;1.80;;;15.30;67.00;16.10;97976.00;;;;5029003;28;20175;-48
2023/01/17 09:27:04;;;;;;;4.97;1.90;;;15.30;67.00;16.10;97987.00;;;;5030119;28;20702;-48
2023/01/17 09:29:30;;;;;;;2.77;1.80;;;15.30;67.00;16.10;97980.00;;;;5030292;28;20182;-47
2023/01/17 09:31:55;;;;;;;4.67;1.93;;;15.30;67.00;16.10;97982.00;;;;5029925;28;20175;-46
2023/01/17 09:34:23;;;;;;;4.30;1.97;;;15.30;67.00;16.10;97988.00;;;;5028679;28;20179;-46
2023/01/17 09:36:49;;;;;;;5.07;1.93;;;15.30;67.00;16.10;97984.00;;;;5029499;28;20199;-46
2023/01/17 09:39:15;;;;;;;5.37;1.83;;;15.30;66.90;16.10;97981.00;;;;5030473;28;20179;-47
2023/01/17 09:42:16;;;;;;;6.27;2.00;;;15.30;66.90;16.10;97985.00;;;;5029553;28;20210;-47
2023/01/17 09:44:50;;;;;;;4.20;1.60;;;15.30;66.80;16.10;97981.00;;;;5029330;28;20170;-46
2023/01/17 09:47:29;;;;;;;6.50;2.00;;;15.30;66.80;16.10;97984.00;;;;5016455;28;20592;-55
2023/01/17 09:49:58;;;;;;;4.03;2.00;;;15.30;66.80;16.10;97986.00;;;;5032375;28;20231;-47
2023/01/17 09:52:24;;;;;;;2.17;1.80;;;15.30;66.80;16.10;97990.00;;;;5016054;28;20175;-46
2023/01/17 09:54:49;;;;;;;8.53;1.70;;;15.30;66.70;16.10;97988.00;;;;5035587;28;20248;-47
2023/01/17 09:57:50;;;;;;;2.27;1.80;;;15.30;66.60;16.10;97997.00;;;;5041467;28;20242;-46
2023/01/17 10:00:56;;;;;;;3.50;1.70;;;15.30;66.60;16.10;98005.00;;;;5025517;28;20269;-47
2023/01/17 10:03:37;;;;;;;3.53;1.80;;;15.30;66.60;16.10;97988.00;;;;4989081;28;20631;-46
2023/01/17 10:06:44;;;;;;;2.20;1.70;;;15.30;66.70;16.10;98005.00;;;;5017653;28;20170;-47
2023/01/17 10:09:34;;;;;;;3.30;1.80;;;15.40;66.70;16.10;98004.00;;;;5033610;28;20213;-46
2023/01/17 10:12:40;;;;;;;2.40;1.60;;;15.30;66.50;16.10;98001.00;;;;5039255;28;20190;-46
2023/01/17 10:15:09;;;;;;;3.63;1.60;;;15.30;66.60;16.10;98005.00;;;;5034718;28;20186;-46
2023/01/17 10:17:37;;;;;;;3.13;1.63;;;15.30;66.50;16.10;98011.00;;;;5033789;28;20226;-47
2023/01/17 10:20:32;;;;;;;1.50;1.40;;;15.30;66.50;16.10;97996.00;;;;5031901;28;20659;-46
2023/01/17 10:23:31;;;;;;;1.83;1.70;;;15.30;66.50;16.10;97994.00;;;;5033605;28;20168;-46
2023/01/17 10:26:02;;;;;;;2.03;1.70;;;15.30;66.50;16.10;98010.00;;;;5017298;28;20183;-46
2023/01/17 10:28:45;;;;;;;2.20;1.50;;;15.40;66.50;16.10;98004.00;;;;5015811;28;20211;-53
2023/01/17 10:31:18;;;;;;;3.07;1.80;;;15.30;66.40;16.10;98000.00;;;;5000671;28;20293;-46
2023/01/17 10:33:54;;;;;;;2.40;1.70;;;15.30;66.40;16.10;97999.00;;;;5015977;28;20177;-46
2023/01/17 10:36:33;;;;;;;3.23;1.60;;;15.30;66.50;16.10;98002.00;;;;5032724;28;20652;-48
2023/01/17 10:39:17;;;;;;;1.80;1.50;;;15.30;66.40;16.10;97997.00;;;;5032973;28;20199;-47
2023/01/17 10:41:44;;;;;;;3.00;1.60;;;15.30;66.40;16.10;97993.00;;;;5031631;28;20171;-47
2023/01/17 10:44:32;;;;;;;2.30;1.70;;;15.30;66.40;16.10;98009.00;;;;5016266;28;20175;-48
2023/01/17 10:47:18;;;;;;;1.80;1.60;;;15.30;66.50;16.10;97997.00;;;;5016284;28;20696;-48
2023/01/17 10:49:46;;;;;;;1.80;1.60;;;15.30;66.40;16.10;97989.00;;;;5031744;28;20624;-47
2023/01/17 10:52:29;;;;;;;3.23;1.77;;;15.30;66.40;16.10;97994.00;;;;5015256;28;20171;-46
2023/01/17 10:55:09;;;;;;;10.53;2.10;;;15.30;66.40;16.10;97987.00;;;;5031788;28;20221;-47
2023/01/17 10:57:46;;;;;;;8.67;2.20;;;15.40;67.50;16.10;97997.00;;;;5031779;28;20293;-48
2023/01/17 11:00:38;;;;;;;3.53;1.60;;;15.40;67.00;16.20;97986.00;;;;5014392;28;20185;-45
2023/01/17 11:03:04;;;;;;;6.80;1.80;;;15.40;66.80;16.10;97994.00;;;;5031547;28;20190;-45
2023/01/17 11:05:31;;;;;;;9.47;2.10;;;15.40;66.90;16.20;97983.00;;;;5031328;28;20690;-46
2023/01/17 11:08:01;;;;;;;2.53;1.70;;;15.40;67.10;16.20;97982.00;;;;5029927;28;20211;-46
2023/01/17 11:10:43;;;;;;;3.70;1.80;;;15.40;66.90;16.20;97976.00;;;;5033910;28;20190;-46
2023/01/17 11:13:34;;;;;;;7.00;1.90;;;15.40;66.90;16.20;97995.00;;;;5030366;28;20178;-46
2023/01/17 11:16:07;;;;;;;5.70;1.70;;;15.40;66.80;16.20;97975.00;;;;5030683;28;20171;-44
2023/01/17 11:18:37;;;;;;;4.10;1.73;;;15.40;66.70;16.20;97977.00;;;;5030649;28;20552;-45
2023/01/17 11:21:20;;;;;;;3.73;1.80;;;15.40;66.60;16.20;97973.00;;;;5030725;28;20202;-45
2023/01/17 11:23:47;;;;;;;4.07;1.83;;;15.40;66.50;16.10;97982.00;;;;5030748;28;20250;-46
2023/01/17 11:26:28;;;;;;;4.13;1.90;;;15.40;66.50;16.20;97984.00;;;;5030579;28;20305;-45
2023/01/17 11:29:22;;;;;;;2.73;1.80;;;15.40;66.50;16.20;97974.00;;;;5014208;28;20179;-45
2023/01/17 11:31:48;;;;;;;4.47;1.83;;;15.40;66.50;16.20;97964.00;;;;5030200;28;20211;-44
2023/01/17 11:34:22;;;;;;;3.70;1.80;;;15.40;66.50;16.20;97969.00;;;;5013932;28;20205;-45
2023/01/17 11:36:49;;;;;;;4.17;1.87;;;15.40;66.50;16.20;97968.00;;;;5031102;28;20197;-45
2023/01/17 11:39:17;;;;;;;3.27;1.60;;;15.30;66.40;16.20;97967.00;;;;5030747;28;20722;-45
2023/01/17 11:41:44;;;;;;;2.33;1.83;;;15.30;66.40;16.20;97967.00;;;;5031095;28;20175;-45
2023/01/17 11:44:33;;;;;;;2.10;1.53;;;15.30;66.40;16.20;97953.00;;;;5029595;28;20179;-45
2023/01/17 11:47:19;;;;;;;2.53;1.70;;;15.30;66.40;16.20;97894.00;;;;5030828;28;20219;-45
2023/01/17 11:49:48;;;;;;;3.30;1.60;;;15.30;66.30;16.20;97958.00;;;;5031172;28;20167;-46
2023/01/17 11:52:30;;;;;;;2.10;1.73;;;15.30;66.30;16.10;97959.00;;;;5030719;28;20693;-45
2023/01/17 11:54:56;;;;;;;2.73;1.60;;;15.30;66.30;16.10;97954.00;;;;5030023;28;20182;-45
2023/01/17 11:57:33;;;;;;;2.27;1.53;;;15.30;66.30;16.10;97943.00;;;;5030903;28;20555;-45
2023/01/17 12:00:20;;;;;;;1.63;1.50;;;15.30;66.40;16.10;97934.00;;;;5029978;28;20628;-45
2023/01/17 12:03:35;;;;;;;2.20;1.70;;;15.30;66.40;16.10;97944.00;;;;5029664;28;20730;-44
2023/01/17 12:06:16;;;;;;;1.47;1.37;;;15.20;67.00;16.10;97923.00;;;;5028971;28;20191;-45
2023/01/17 12:09:32;;;;;;;2.63;1.50;;;15.20;66.30;16.10;97946.00;;;;5030516;28;20217;-45
2023/01/17 12:15:59;;;;;;;2.90;1.60;;;15.20;66.50;16.00;97924.00;;;;4994234;28;20672;-45
2023/01/17 12:18:36;;;;;;;2.93;1.50;;;15.20;66.50;16.00;97935.00;;;;5030677;28;20205;-47
2023/01/17 12:21:08;;;;;;;4.67;1.50;;;15.10;66.40;16.00;97931.00;;;;5031659;28;20194;-44
2023/01/17 12:23:44;;;;;;;3.93;1.80;;;15.10;66.30;16.00;97934.00;;;;5031661;28;20171;-47
2023/01/17 12:26:41;;;;;;;2.73;1.70;;;15.20;66.60;16.00;97931.00;;;;5018859;28;20258;-44
2023/01/17 12:29:41;;;;;;;2.60;1.53;;;15.10;66.80;16.00;97938.00;;;;5009256;28;20270;-48
2023/01/17 12:32:33;;;;;;;4.80;1.70;;;15.10;66.80;15.90;97929.00;;;;5008216;28;20230;-46
2023/01/17 12:35:10;;;;;;;1.87;1.60;;;15.10;66.90;15.90;97924.00;;;;5008383;28;20215;-45
2023/01/17 12:37:38;;;;;;;3.57;1.57;;;15.10;66.90;15.90;97920.00;;;;5008482;28;20266;-45